Terminal Aerodrome Forecast
Issued by NWS

Home | Current Version | Previous Version | Text Only | Print | Product List | Glossary On
Versions: 1 2 3 4 5 6 7 8 9 10 11 12 13 14 15
000
FTUS46 KPDT 071247 CCA
TAFBDN
TAF COR
KBDN 071247Z 0712/0812 19005KT P6SM SCT120 SCT250
     FM071800 32009KT P6SM SCT080 SCT120
     FM072200 34012G19KT P6SM VCTS BKN070CB BKN120
     FM080400 VRB04KT P6SM SCT120 SCT250
      AMD NOT SKED=

USA.gov is the U.S. government's official web portal to all federal, state and local government web resources and services.